sensor_id;sensor_type;location;lat;lon;timestamp;P1;durP1;ratioP1;P2;durP2;ratioP2
17059;SDS011;8646;49.716;9.266;2023-03-31T00:02:16;8.63;;;1.20;;
17059;SDS011;8646;49.716;9.266;2023-03-31T00:05:26;3.33;;;0.80;;
17059;SDS011;8646;49.716;9.266;2023-03-31T00:08:30;6.17;;;1.00;;
17059;SDS011;8646;49.716;9.266;2023-03-31T00:11:48;7.53;;;1.40;;
17059;SDS011;8646;49.716;9.266;2023-03-31T00:14:53;4.83;;;1.20;;
17059;SDS011;8646;49.716;9.266;2023-03-31T00:18:01;4.13;;;1.20;;
17059;SDS011;8646;49.716;9.266;2023-03-31T00:21:09;7.30;;;1.57;;
17059;SDS011;8646;49.716;9.266;2023-03-31T00:24:21;6.63;;;1.27;;
17059;SDS011;8646;49.716;9.266;2023-03-31T00:27:23;3.77;;;1.20;;
17059;SDS011;8646;49.716;9.266;2023-03-31T00:30:28;6.40;;;1.20;;
17059;SDS011;8646;49.716;9.266;2023-03-31T00:33:31;6.43;;;1.20;;
17059;SDS011;8646;49.716;9.266;2023-03-31T00:36:45;7.97;;;1.07;;
17059;SDS011;8646;49.716;9.266;2023-03-31T00:39:51;6.77;;;1.03;;
17059;SDS011;8646;49.716;9.266;2023-03-31T00:42:54;3.70;;;1.13;;
17059;SDS011;8646;49.716;9.266;2023-03-31T00:46:08;8.90;;;1.30;;
17059;SDS011;8646;49.716;9.266;2023-03-31T00:49:28;6.23;;;0.97;;
17059;SDS011;8646;49.716;9.266;2023-03-31T00:52:35;8.03;;;1.20;;
17059;SDS011;8646;49.716;9.266;2023-03-31T00:55:53;7.00;;;1.20;;
17059;SDS011;8646;49.716;9.266;2023-03-31T00:59:01;5.27;;;1.20;;
17059;SDS011;8646;49.716;9.266;2023-03-31T01:02:09;6.10;;;1.40;;
17059;SDS011;8646;49.716;9.266;2023-03-31T01:05:15;4.90;;;1.27;;
17059;SDS011;8646;49.716;9.266;2023-03-31T01:08:22;10.07;;;1.27;;
17059;SDS011;8646;49.716;9.266;2023-03-31T01:11:27;8.87;;;1.30;;
17059;SDS011;8646;49.716;9.266;2023-03-31T01:14:32;8.43;;;1.30;;
17059;SDS011;8646;49.716;9.266;2023-03-31T01:17:35;6.57;;;1.20;;
17059;SDS011;8646;49.716;9.266;2023-03-31T01:21:04;8.47;;;1.30;;
17059;SDS011;8646;49.716;9.266;2023-03-31T01:24:40;7.17;;;1.50;;
17059;SDS011;8646;49.716;9.266;2023-03-31T01:28:06;9.00;;;1.17;;
17059;SDS011;8646;49.716;9.266;2023-03-31T01:31:20;6.07;;;1.37;;
17059;SDS011;8646;49.716;9.266;2023-03-31T01:35:36;6.67;;;1.50;;
17059;SDS011;8646;49.716;9.266;2023-03-31T01:39:05;10.93;;;1.70;;
17059;SDS011;8646;49.716;9.266;2023-03-31T01:42:31;8.07;;;1.70;;
17059;SDS011;8646;49.716;9.266;2023-03-31T01:45:43;9.23;;;1.63;;
17059;SDS011;8646;49.716;9.266;2023-03-31T01:48:58;11.97;;;1.63;;
17059;SDS011;8646;49.716;9.266;2023-03-31T01:52:08;12.93;;;1.93;;
17059;SDS011;8646;49.716;9.266;2023-03-31T01:55:21;12.10;;;1.97;;
17059;SDS011;8646;49.716;9.266;2023-03-31T01:58:33;11.13;;;1.50;;
17059;SDS011;8646;49.716;9.266;2023-03-31T02:01:46;8.60;;;1.60;;
17059;SDS011;8646;49.716;9.266;2023-03-31T02:04:53;9.97;;;1.70;;
17059;SDS011;8646;49.716;9.266;2023-03-31T02:08:15;8.33;;;1.23;;
17059;SDS011;8646;49.716;9.266;2023-03-31T02:11:24;7.43;;;1.50;;
17059;SDS011;8646;49.716;9.266;2023-03-31T02:14:42;10.17;;;1.90;;
17059;SDS011;8646;49.716;9.266;2023-03-31T02:17:48;8.87;;;1.50;;
17059;SDS011;8646;49.716;9.266;2023-03-31T02:21:01;5.50;;;1.50;;
17059;SDS011;8646;49.716;9.266;2023-03-31T02:24:08;10.10;;;1.93;;
17059;SDS011;8646;49.716;9.266;2023-03-31T02:27:29;13.70;;;2.27;;
17059;SDS011;8646;49.716;9.266;2023-03-31T02:30:37;7.80;;;1.57;;
17059;SDS011;8646;49.716;9.266;2023-03-31T02:33:59;8.77;;;1.53;;
17059;SDS011;8646;49.716;9.266;2023-03-31T02:37:03;8.63;;;1.57;;
17059;SDS011;8646;49.716;9.266;2023-03-31T02:40:10;8.70;;;1.60;;
17059;SDS011;8646;49.716;9.266;2023-03-31T02:43:17;9.27;;;2.20;;
17059;SDS011;8646;49.716;9.266;2023-03-31T02:46:27;11.27;;;1.67;;
17059;SDS011;8646;49.716;9.266;2023-03-31T02:49:33;10.73;;;1.60;;
17059;SDS011;8646;49.716;9.266;2023-03-31T02:52:55;8.43;;;1.50;;
17059;SDS011;8646;49.716;9.266;2023-03-31T02:56:09;9.33;;;1.30;;
17059;SDS011;8646;49.716;9.266;2023-03-31T02:59:32;7.87;;;1.40;;
17059;SDS011;8646;49.716;9.266;2023-03-31T03:02:50;6.47;;;1.70;;
17059;SDS011;8646;49.716;9.266;2023-03-31T03:06:12;7.20;;;1.60;;
17059;SDS011;8646;49.716;9.266;2023-03-31T03:09:30;8.73;;;1.30;;
17059;SDS011;8646;49.716;9.266;2023-03-31T03:12:51;8.93;;;1.47;;
17059;SDS011;8646;49.716;9.266;2023-03-31T03:16:00;8.97;;;1.50;;
17059;SDS011;8646;49.716;9.266;2023-03-31T03:19:21;8.67;;;1.47;;
17059;SDS011;8646;49.716;9.266;2023-03-31T03:22:24;11.77;;;1.60;;
17059;SDS011;8646;49.716;9.266;2023-03-31T03:25:27;8.53;;;1.53;;
17059;SDS011;8646;49.716;9.266;2023-03-31T03:28:30;12.27;;;1.73;;
17059;SDS011;8646;49.716;9.266;2023-03-31T03:31:36;7.87;;;1.53;;
17059;SDS011;8646;49.716;9.266;2023-03-31T03:34:40;9.73;;;1.20;;
17059;SDS011;8646;49.716;9.266;2023-03-31T03:37:49;10.50;;;1.90;;
17059;SDS011;8646;49.716;9.266;2023-03-31T03:40:52;8.10;;;1.50;;
17059;SDS011;8646;49.716;9.266;2023-03-31T03:44:00;10.00;;;1.60;;
17059;SDS011;8646;49.716;9.266;2023-03-31T03:47:09;9.53;;;2.40;;
17059;SDS011;8646;49.716;9.266;2023-03-31T03:50:13;10.17;;;1.70;;
17059;SDS011;8646;49.716;9.266;2023-03-31T03:53:16;9.13;;;2.30;;
17059;SDS011;8646;49.716;9.266;2023-03-31T03:56:19;11.93;;;2.33;;
17059;SDS011;8646;49.716;9.266;2023-03-31T03:59:25;8.17;;;1.93;;
17059;SDS011;8646;49.716;9.266;2023-03-31T04:02:27;8.67;;;1.90;;
17059;SDS011;8646;49.716;9.266;2023-03-31T04:05:41;8.83;;;2.33;;
17059;SDS011;8646;49.716;9.266;2023-03-31T04:08:43;15.23;;;2.40;;
17059;SDS011;8646;49.716;9.266;2023-03-31T04:11:53;13.40;;;1.87;;
17059;SDS011;8646;49.716;9.266;2023-03-31T04:14:56;7.60;;;1.60;;
17059;SDS011;8646;49.716;9.266;2023-03-31T04:17:59;8.53;;;1.33;;
17059;SDS011;8646;49.716;9.266;2023-03-31T04:21:03;10.80;;;1.80;;
17059;SDS011;8646;49.716;9.266;2023-03-31T04:24:06;11.20;;;1.80;;
17059;SDS011;8646;49.716;9.266;2023-03-31T04:27:14;5.67;;;1.57;;
17059;SDS011;8646;49.716;9.266;2023-03-31T04:30:21;7.77;;;1.43;;
17059;SDS011;8646;49.716;9.266;2023-03-31T04:33:25;8.77;;;1.60;;
17059;SDS011;8646;49.716;9.266;2023-03-31T04:36:43;10.00;;;1.70;;
17059;SDS011;8646;49.716;9.266;2023-03-31T04:39:48;9.27;;;1.63;;
17059;SDS011;8646;49.716;9.266;2023-03-31T04:42:58;7.50;;;1.73;;
17059;SDS011;8646;49.716;9.266;2023-03-31T04:46:01;9.90;;;1.70;;
17059;SDS011;8646;49.716;9.266;2023-03-31T04:49:10;7.57;;;1.50;;
17059;SDS011;8646;49.716;9.266;2023-03-31T04:52:15;13.13;;;1.67;;
17059;SDS011;8646;49.716;9.266;2023-03-31T04:55:27;9.53;;;1.17;;
17059;SDS011;8646;49.716;9.266;2023-03-31T05:01:58;5.87;;;1.10;;
17059;SDS011;8646;49.716;9.266;2023-03-31T05:05:01;7.40;;;1.57;;
17059;SDS011;8646;49.716;9.266;2023-03-31T05:08:05;9.90;;;1.60;;
17059;SDS011;8646;49.716;9.266;2023-03-31T05:11:08;9.80;;;1.67;;
17059;SDS011;8646;49.716;9.266;2023-03-31T05:14:11;9.67;;;1.90;;
17059;SDS011;8646;49.716;9.266;2023-03-31T05:17:13;5.80;;;1.30;;
17059;SDS011;8646;49.716;9.266;2023-03-31T05:20:18;6.30;;;1.43;;
17059;SDS011;8646;49.716;9.266;2023-03-31T05:23:23;8.33;;;1.40;;
17059;SDS011;8646;49.716;9.266;2023-03-31T05:26:25;5.73;;;1.23;;
17059;SDS011;8646;49.716;9.266;2023-03-31T05:29:28;6.00;;;1.60;;
17059;SDS011;8646;49.716;9.266;2023-03-31T05:32:31;10.37;;;1.40;;
17059;SDS011;8646;49.716;9.266;2023-03-31T05:35:34;10.77;;;1.50;;
17059;SDS011;8646;49.716;9.266;2023-03-31T05:38:38;11.33;;;1.80;;
17059;SDS011;8646;49.716;9.266;2023-03-31T05:41:41;4.87;;;1.33;;
17059;SDS011;8646;49.716;9.266;2023-03-31T05:44:44;8.13;;;1.60;;
17059;SDS011;8646;49.716;9.266;2023-03-31T05:47:47;4.80;;;1.33;;
17059;SDS011;8646;49.716;9.266;2023-03-31T05:51:02;5.23;;;1.50;;
17059;SDS011;8646;49.716;9.266;2023-03-31T05:54:06;7.63;;;1.77;;
17059;SDS011;8646;49.716;9.266;2023-03-31T05:57:09;10.00;;;1.97;;
17059;SDS011;8646;49.716;9.266;2023-03-31T06:00:13;8.07;;;2.20;;
17059;SDS011;8646;49.716;9.266;2023-03-31T06:03:21;14.13;;;2.37;;
17059;SDS011;8646;49.716;9.266;2023-03-31T06:06:37;7.33;;;1.90;;
17059;SDS011;8646;49.716;9.266;2023-03-31T06:09:41;9.07;;;1.80;;
17059;SDS011;8646;49.716;9.266;2023-03-31T06:12:47;11.40;;;2.67;;
17059;SDS011;8646;49.716;9.266;2023-03-31T06:15:53;9.73;;;2.13;;
17059;SDS011;8646;49.716;9.266;2023-03-31T06:18:56;11.10;;;2.57;;
17059;SDS011;8646;49.716;9.266;2023-03-31T06:22:01;8.37;;;2.00;;
17059;SDS011;8646;49.716;9.266;2023-03-31T06:25:06;7.47;;;2.27;;
17059;SDS011;8646;49.716;9.266;2023-03-31T06:28:09;10.20;;;2.40;;
17059;SDS011;8646;49.716;9.266;2023-03-31T06:31:13;7.90;;;2.57;;
17059;SDS011;8646;49.716;9.266;2023-03-31T06:34:19;8.40;;;2.57;;
17059;SDS011;8646;49.716;9.266;2023-03-31T06:37:22;9.70;;;2.73;;
17059;SDS011;8646;49.716;9.266;2023-03-31T06:40:29;8.63;;;2.30;;
17059;SDS011;8646;49.716;9.266;2023-03-31T06:43:32;6.67;;;2.00;;
17059;SDS011;8646;49.716;9.266;2023-03-31T06:46:38;7.53;;;2.20;;
17059;SDS011;8646;49.716;9.266;2023-03-31T06:49:40;8.67;;;2.60;;
17059;SDS011;8646;49.716;9.266;2023-03-31T06:52:46;10.27;;;2.37;;
17059;SDS011;8646;49.716;9.266;2023-03-31T06:56:01;7.87;;;2.40;;
17059;SDS011;8646;49.716;9.266;2023-03-31T07:02:26;10.77;;;2.60;;
17059;SDS011;8646;49.716;9.266;2023-03-31T07:05:29;9.33;;;2.43;;
17059;SDS011;8646;49.716;9.266;2023-03-31T07:08:33;7.37;;;2.53;;
17059;SDS011;8646;49.716;9.266;2023-03-31T07:11:43;6.00;;;2.20;;
17059;SDS011;8646;49.716;9.266;2023-03-31T07:14:54;10.47;;;2.60;;
17059;SDS011;8646;49.716;9.266;2023-03-31T07:17:57;9.33;;;2.37;;
17059;SDS011;8646;49.716;9.266;2023-03-31T07:21:03;8.40;;;2.80;;
17059;SDS011;8646;49.716;9.266;2023-03-31T07:24:10;8.83;;;3.10;;
17059;SDS011;8646;49.716;9.266;2023-03-31T07:27:16;10.00;;;2.67;;
17059;SDS011;8646;49.716;9.266;2023-03-31T07:30:22;12.70;;;3.00;;
17059;SDS011;8646;49.716;9.266;2023-03-31T07:33:27;7.27;;;2.93;;
17059;SDS011;8646;49.716;9.266;2023-03-31T07:36:38;6.77;;;2.70;;
17059;SDS011;8646;49.716;9.266;2023-03-31T07:39:44;8.60;;;2.70;;
17059;SDS011;8646;49.716;9.266;2023-03-31T07:42:48;7.90;;;2.53;;
17059;SDS011;8646;49.716;9.266;2023-03-31T07:45:52;6.57;;;2.80;;
17059;SDS011;8646;49.716;9.266;2023-03-31T07:48:55;9.80;;;2.67;;
17059;SDS011;8646;49.716;9.266;2023-03-31T07:51:58;7.73;;;2.80;;
17059;SDS011;8646;49.716;9.266;2023-03-31T07:55:10;7.60;;;3.20;;
17059;SDS011;8646;49.716;9.266;2023-03-31T07:58:25;7.97;;;2.67;;
17059;SDS011;8646;49.716;9.266;2023-03-31T08:01:27;6.23;;;2.77;;
17059;SDS011;8646;49.716;9.266;2023-03-31T08:04:30;9.33;;;2.77;;
17059;SDS011;8646;49.716;9.266;2023-03-31T08:07:37;6.83;;;2.80;;
17059;SDS011;8646;49.716;9.266;2023-03-31T08:10:43;5.57;;;2.37;;
17059;SDS011;8646;49.716;9.266;2023-03-31T08:13:53;4.93;;;2.63;;
17059;SDS011;8646;49.716;9.266;2023-03-31T08:16:56;6.13;;;2.60;;
17059;SDS011;8646;49.716;9.266;2023-03-31T08:20:01;9.60;;;2.87;;
17059;SDS011;8646;49.716;9.266;2023-03-31T08:23:08;7.63;;;2.80;;
17059;SDS011;8646;49.716;9.266;2023-03-31T08:26:19;9.60;;;2.80;;
17059;SDS011;8646;49.716;9.266;2023-03-31T08:29:25;7.27;;;2.50;;
17059;SDS011;8646;49.716;9.266;2023-03-31T08:32:37;6.93;;;2.27;;
17059;SDS011;8646;49.716;9.266;2023-03-31T08:39:16;7.50;;;2.50;;
17059;SDS011;8646;49.716;9.266;2023-03-31T08:42:40;11.87;;;3.00;;
17059;SDS011;8646;49.716;9.266;2023-03-31T08:45:49;13.17;;;3.20;;
17059;SDS011;8646;49.716;9.266;2023-03-31T08:48:54;8.77;;;2.87;;
17059;SDS011;8646;49.716;9.266;2023-03-31T08:51:58;6.20;;;1.90;;
17059;SDS011;8646;49.716;9.266;2023-03-31T08:55:06;6.30;;;2.47;;
17059;SDS011;8646;49.716;9.266;2023-03-31T08:58:28;4.40;;;2.13;;
17059;SDS011;8646;49.716;9.266;2023-03-31T09:01:42;5.00;;;2.10;;
17059;SDS011;8646;49.716;9.266;2023-03-31T09:08:53;5.93;;;2.23;;
17059;SDS011;8646;49.716;9.266;2023-03-31T09:12:28;6.27;;;2.07;;
17059;SDS011;8646;49.716;9.266;2023-03-31T09:15:46;4.23;;;1.73;;
17059;SDS011;8646;49.716;9.266;2023-03-31T09:18:57;8.60;;;2.10;;
17059;SDS011;8646;49.716;9.266;2023-03-31T09:22:01;6.13;;;1.60;;
17059;SDS011;8646;49.716;9.266;2023-03-31T09:25:09;4.20;;;1.90;;
17059;SDS011;8646;49.716;9.266;2023-03-31T09:28:17;8.07;;;1.47;;
17059;SDS011;8646;49.716;9.266;2023-03-31T09:31:25;8.07;;;1.73;;
17059;SDS011;8646;49.716;9.266;2023-03-31T09:34:31;6.50;;;1.40;;
17059;SDS011;8646;49.716;9.266;2023-03-31T09:37:45;4.93;;;1.50;;
17059;SDS011;8646;49.716;9.266;2023-03-31T09:40:49;3.03;;;1.40;;
17059;SDS011;8646;49.716;9.266;2023-03-31T09:43:52;3.40;;;1.33;;
17059;SDS011;8646;49.716;9.266;2023-03-31T09:46:55;7.53;;;1.80;;
17059;SDS011;8646;49.716;9.266;2023-03-31T09:50:06;4.40;;;1.47;;
17059;SDS011;8646;49.716;9.266;2023-03-31T09:53:17;3.80;;;1.70;;
17059;SDS011;8646;49.716;9.266;2023-03-31T09:56:44;5.90;;;1.27;;
17059;SDS011;8646;49.716;9.266;2023-03-31T09:59:49;6.20;;;1.30;;
17059;SDS011;8646;49.716;9.266;2023-03-31T10:02:52;7.97;;;1.20;;
17059;SDS011;8646;49.716;9.266;2023-03-31T10:05:58;9.30;;;1.20;;
17059;SDS011;8646;49.716;9.266;2023-03-31T10:09:08;3.50;;;0.83;;
17059;SDS011;8646;49.716;9.266;2023-03-31T10:12:14;3.50;;;0.97;;
17059;SDS011;8646;49.716;9.266;2023-03-31T10:15:21;2.50;;;0.70;;
17059;SDS011;8646;49.716;9.266;2023-03-31T10:18:31;4.27;;;0.77;;
17059;SDS011;8646;49.716;9.266;2023-03-31T10:21:44;3.57;;;0.67;;
17059;SDS011;8646;49.716;9.266;2023-03-31T10:24:48;1.90;;;0.50;;
17059;SDS011;8646;49.716;9.266;2023-03-31T10:27:52;4.90;;;0.90;;
17059;SDS011;8646;49.716;9.266;2023-03-31T10:30:57;2.83;;;0.67;;
17059;SDS011;8646;49.716;9.266;2023-03-31T10:34:04;4.57;;;0.53;;
17059;SDS011;8646;49.716;9.266;2023-03-31T10:37:13;3.07;;;0.90;;
17059;SDS011;8646;49.716;9.266;2023-03-31T10:40:20;1.47;;;0.60;;
17059;SDS011;8646;49.716;9.266;2023-03-31T10:43:29;3.23;;;0.70;;
17059;SDS011;8646;49.716;9.266;2023-03-31T10:46:40;3.20;;;0.77;;
17059;SDS011;8646;49.716;9.266;2023-03-31T10:49:55;4.83;;;1.10;;
17059;SDS011;8646;49.716;9.266;2023-03-31T10:53:04;3.10;;;1.00;;
17059;SDS011;8646;49.716;9.266;2023-03-31T10:56:11;3.43;;;1.07;;
17059;SDS011;8646;49.716;9.266;2023-03-31T10:59:24;4.50;;;1.17;;
17059;SDS011;8646;49.716;9.266;2023-03-31T11:03:00;3.60;;;1.00;;
17059;SDS011;8646;49.716;9.266;2023-03-31T11:06:30;9.50;;;3.43;;
17059;SDS011;8646;49.716;9.266;2023-03-31T11:09:48;9.00;;;3.50;;
17059;SDS011;8646;49.716;9.266;2023-03-31T11:13:04;9.10;;;2.83;;
17059;SDS011;8646;49.716;9.266;2023-03-31T11:16:15;3.70;;;1.03;;
17059;SDS011;8646;49.716;9.266;2023-03-31T11:19:25;4.70;;;1.00;;
17059;SDS011;8646;49.716;9.266;2023-03-31T11:22:41;5.27;;;0.97;;
17059;SDS011;8646;49.716;9.266;2023-03-31T11:25:51;6.30;;;1.30;;
17059;SDS011;8646;49.716;9.266;2023-03-31T11:29:02;10.60;;;3.60;;
17059;SDS011;8646;49.716;9.266;2023-03-31T11:32:37;8.23;;;2.73;;
17059;SDS011;8646;49.716;9.266;2023-03-31T11:36:00;36.80;;;8.27;;
17059;SDS011;8646;49.716;9.266;2023-03-31T11:39:20;31.63;;;6.90;;
17059;SDS011;8646;49.716;9.266;2023-03-31T11:42:34;3.60;;;1.13;;
17059;SDS011;8646;49.716;9.266;2023-03-31T11:45:44;4.77;;;1.20;;
17059;SDS011;8646;49.716;9.266;2023-03-31T11:48:57;2.83;;;1.10;;
17059;SDS011;8646;49.716;9.266;2023-03-31T11:52:05;4.53;;;1.00;;
17059;SDS011;8646;49.716;9.266;2023-03-31T11:55:12;4.80;;;1.23;;
17059;SDS011;8646;49.716;9.266;2023-03-31T11:58:21;4.17;;;0.80;;
17059;SDS011;8646;49.716;9.266;2023-03-31T12:01:29;4.37;;;0.83;;
17059;SDS011;8646;49.716;9.266;2023-03-31T12:04:40;3.77;;;0.90;;
17059;SDS011;8646;49.716;9.266;2023-03-31T12:07:46;2.90;;;0.70;;
17059;SDS011;8646;49.716;9.266;2023-03-31T12:10:54;6.27;;;2.23;;
17059;SDS011;8646;49.716;9.266;2023-03-31T12:14:07;3.30;;;0.80;;
17059;SDS011;8646;49.716;9.266;2023-03-31T12:17:18;5.53;;;0.80;;
17059;SDS011;8646;49.716;9.266;2023-03-31T12:20:27;4.70;;;0.70;;
17059;SDS011;8646;49.716;9.266;2023-03-31T12:23:33;3.27;;;0.67;;
17059;SDS011;8646;49.716;9.266;2023-03-31T12:26:42;4.13;;;0.70;;
17059;SDS011;8646;49.716;9.266;2023-03-31T12:29:55;4.03;;;0.80;;
17059;SDS011;8646;49.716;9.266;2023-03-31T12:33:05;8.70;;;3.10;;
17059;SDS011;8646;49.716;9.266;2023-03-31T12:36:17;4.13;;;1.10;;
17059;SDS011;8646;49.716;9.266;2023-03-31T12:39:35;4.40;;;0.77;;
17059;SDS011;8646;49.716;9.266;2023-03-31T12:46:16;4.90;;;0.80;;
17059;SDS011;8646;49.716;9.266;2023-03-31T12:49:32;10.00;;;1.60;;
17059;SDS011;8646;49.716;9.266;2023-03-31T12:52:51;7.60;;;1.10;;
17059;SDS011;8646;49.716;9.266;2023-03-31T12:56:02;6.37;;;1.10;;
17059;SDS011;8646;49.716;9.266;2023-03-31T12:59:16;8.00;;;1.80;;
17059;SDS011;8646;49.716;9.266;2023-03-31T13:02:34;4.77;;;1.30;;
17059;SDS011;8646;49.716;9.266;2023-03-31T13:05:44;3.77;;;0.80;;
17059;SDS011;8646;49.716;9.266;2023-03-31T13:08:52;4.37;;;0.80;;
17059;SDS011;8646;49.716;9.266;2023-03-31T13:11:57;4.80;;;0.87;;
17059;SDS011;8646;49.716;9.266;2023-03-31T13:15:32;8.30;;;1.50;;
17059;SDS011;8646;49.716;9.266;2023-03-31T13:18:36;5.37;;;1.90;;
17059;SDS011;8646;49.716;9.266;2023-03-31T13:21:53;7.47;;;1.70;;
17059;SDS011;8646;49.716;9.266;2023-03-31T13:28:44;6.33;;;1.20;;
17059;SDS011;8646;49.716;9.266;2023-03-31T13:35:33;5.37;;;1.10;;
17059;SDS011;8646;49.716;9.266;2023-03-31T13:38:44;3.13;;;0.80;;
17059;SDS011;8646;49.716;9.266;2023-03-31T13:41:55;3.03;;;0.73;;
17059;SDS011;8646;49.716;9.266;2023-03-31T13:45:25;7.53;;;1.03;;
17059;SDS011;8646;49.716;9.266;2023-03-31T13:48:48;3.43;;;0.70;;
17059;SDS011;8646;49.716;9.266;2023-03-31T13:52:09;8.43;;;0.83;;
17059;SDS011;8646;49.716;9.266;2023-03-31T13:59:00;5.87;;;0.90;;
17059;SDS011;8646;49.716;9.266;2023-03-31T14:02:26;3.47;;;0.70;;
17059;SDS011;8646;49.716;9.266;2023-03-31T14:05:49;4.50;;;1.50;;
17059;SDS011;8646;49.716;9.266;2023-03-31T14:08:59;3.30;;;0.83;;
17059;SDS011;8646;49.716;9.266;2023-03-31T14:12:17;4.40;;;0.83;;
17059;SDS011;8646;49.716;9.266;2023-03-31T14:15:22;2.57;;;0.80;;
17059;SDS011;8646;49.716;9.266;2023-03-31T14:18:29;5.00;;;1.10;;
17059;SDS011;8646;49.716;9.266;2023-03-31T14:21:36;3.97;;;0.77;;
17059;SDS011;8646;49.716;9.266;2023-03-31T14:24:47;4.43;;;0.97;;
17059;SDS011;8646;49.716;9.266;2023-03-31T14:27:59;8.80;;;1.50;;
17059;SDS011;8646;49.716;9.266;2023-03-31T14:31:15;4.77;;;1.07;;
17059;SDS011;8646;49.716;9.266;2023-03-31T14:34:35;4.33;;;1.03;;
17059;SDS011;8646;49.716;9.266;2023-03-31T14:37:48;3.40;;;0.80;;
17059;SDS011;8646;49.716;9.266;2023-03-31T14:40:52;4.13;;;0.90;;
17059;SDS011;8646;49.716;9.266;2023-03-31T14:43:59;4.37;;;0.93;;
17059;SDS011;8646;49.716;9.266;2023-03-31T14:47:12;5.33;;;1.00;;
17059;SDS011;8646;49.716;9.266;2023-03-31T14:50:17;6.97;;;0.90;;
17059;SDS011;8646;49.716;9.266;2023-03-31T14:53:22;5.87;;;1.10;;
17059;SDS011;8646;49.716;9.266;2023-03-31T14:56:30;5.77;;;0.90;;
17059;SDS011;8646;49.716;9.266;2023-03-31T14:59:37;4.03;;;0.90;;
17059;SDS011;8646;49.716;9.266;2023-03-31T15:02:41;4.60;;;0.90;;
17059;SDS011;8646;49.716;9.266;2023-03-31T15:05:46;4.70;;;1.00;;
17059;SDS011;8646;49.716;9.266;2023-03-31T15:08:50;4.47;;;1.00;;
17059;SDS011;8646;49.716;9.266;2023-03-31T15:12:01;4.83;;;1.00;;
17059;SDS011;8646;49.716;9.266;2023-03-31T15:15:07;3.80;;;0.90;;
17059;SDS011;8646;49.716;9.266;2023-03-31T15:18:19;4.13;;;0.77;;
17059;SDS011;8646;49.716;9.266;2023-03-31T15:21:22;2.67;;;0.73;;
17059;SDS011;8646;49.716;9.266;2023-03-31T15:24:26;5.97;;;0.90;;
17059;SDS011;8646;49.716;9.266;2023-03-31T15:27:35;4.37;;;0.70;;
17059;SDS011;8646;49.716;9.266;2023-03-31T15:30:40;2.33;;;0.60;;
17059;SDS011;8646;49.716;9.266;2023-03-31T15:33:43;2.97;;;0.60;;
17059;SDS011;8646;49.716;9.266;2023-03-31T15:36:49;3.17;;;0.60;;
17059;SDS011;8646;49.716;9.266;2023-03-31T15:39:53;1.80;;;0.50;;
17059;SDS011;8646;49.716;9.266;2023-03-31T15:43:05;3.10;;;0.73;;
17059;SDS011;8646;49.716;9.266;2023-03-31T15:46:23;4.37;;;0.57;;
17059;SDS011;8646;49.716;9.266;2023-03-31T15:49:28;4.53;;;0.87;;
17059;SDS011;8646;49.716;9.266;2023-03-31T15:52:31;4.80;;;0.90;;
17059;SDS011;8646;49.716;9.266;2023-03-31T15:55:38;2.80;;;0.70;;
17059;SDS011;8646;49.716;9.266;2023-03-31T16:02:08;4.60;;;0.77;;
17059;SDS011;8646;49.716;9.266;2023-03-31T16:05:20;1.60;;;0.60;;
17059;SDS011;8646;49.716;9.266;2023-03-31T16:08:38;5.63;;;0.60;;
17059;SDS011;8646;49.716;9.266;2023-03-31T16:11:45;3.40;;;0.73;;
17059;SDS011;8646;49.716;9.266;2023-03-31T16:15:01;3.63;;;0.90;;
17059;SDS011;8646;49.716;9.266;2023-03-31T16:18:06;5.37;;;0.80;;
17059;SDS011;8646;49.716;9.266;2023-03-31T16:21:25;4.47;;;0.63;;
17059;SDS011;8646;49.716;9.266;2023-03-31T16:24:31;4.10;;;0.97;;
17059;SDS011;8646;49.716;9.266;2023-03-31T16:27:38;4.00;;;0.90;;
17059;SDS011;8646;49.716;9.266;2023-03-31T16:30:53;5.77;;;1.10;;
17059;SDS011;8646;49.716;9.266;2023-03-31T16:34:06;4.93;;;0.90;;
17059;SDS011;8646;49.716;9.266;2023-03-31T16:37:11;4.00;;;1.10;;
17059;SDS011;8646;49.716;9.266;2023-03-31T16:40:17;4.03;;;0.80;;
17059;SDS011;8646;49.716;9.266;2023-03-31T16:43:22;7.00;;;0.90;;
17059;SDS011;8646;49.716;9.266;2023-03-31T16:46:34;4.00;;;0.80;;
17059;SDS011;8646;49.716;9.266;2023-03-31T16:49:37;7.10;;;1.17;;
17059;SDS011;8646;49.716;9.266;2023-03-31T16:52:42;4.97;;;0.93;;
17059;SDS011;8646;49.716;9.266;2023-03-31T16:55:45;4.23;;;0.90;;
17059;SDS011;8646;49.716;9.266;2023-03-31T16:58:48;5.90;;;1.13;;
17059;SDS011;8646;49.716;9.266;2023-03-31T17:01:55;2.83;;;0.80;;
17059;SDS011;8646;49.716;9.266;2023-03-31T17:04:58;4.70;;;1.03;;
17059;SDS011;8646;49.716;9.266;2023-03-31T17:08:13;6.17;;;1.10;;
17059;SDS011;8646;49.716;9.266;2023-03-31T17:11:17;4.10;;;0.80;;
17059;SDS011;8646;49.716;9.266;2023-03-31T17:14:19;4.53;;;0.90;;
17059;SDS011;8646;49.716;9.266;2023-03-31T17:17:27;6.27;;;1.10;;
17059;SDS011;8646;49.716;9.266;2023-03-31T17:20:30;4.63;;;1.10;;
17059;SDS011;8646;49.716;9.266;2023-03-31T17:23:34;5.40;;;1.10;;
17059;SDS011;8646;49.716;9.266;2023-03-31T17:26:38;3.73;;;0.90;;
17059;SDS011;8646;49.716;9.266;2023-03-31T17:29:48;4.07;;;1.07;;
17059;SDS011;8646;49.716;9.266;2023-03-31T17:32:55;3.73;;;0.90;;
17059;SDS011;8646;49.716;9.266;2023-03-31T17:35:58;6.47;;;1.40;;
17059;SDS011;8646;49.716;9.266;2023-03-31T17:39:01;3.80;;;1.00;;
17059;SDS011;8646;49.716;9.266;2023-03-31T17:42:05;4.83;;;1.13;;
17059;SDS011;8646;49.716;9.266;2023-03-31T17:45:10;3.63;;;0.87;;
17059;SDS011;8646;49.716;9.266;2023-03-31T17:48:14;4.73;;;1.10;;
17059;SDS011;8646;49.716;9.266;2023-03-31T17:51:17;4.97;;;1.00;;
17059;SDS011;8646;49.716;9.266;2023-03-31T17:54:22;4.03;;;0.90;;
17059;SDS011;8646;49.716;9.266;2023-03-31T17:57:25;6.60;;;1.80;;
17059;SDS011;8646;49.716;9.266;2023-03-31T18:00:28;4.10;;;0.77;;
17059;SDS011;8646;49.716;9.266;2023-03-31T18:03:32;3.87;;;0.97;;
17059;SDS011;8646;49.716;9.266;2023-03-31T18:06:35;4.93;;;0.90;;
17059;SDS011;8646;49.716;9.266;2023-03-31T18:09:42;2.93;;;0.80;;
17059;SDS011;8646;49.716;9.266;2023-03-31T18:12:48;5.50;;;1.00;;
17059;SDS011;8646;49.716;9.266;2023-03-31T18:15:57;5.27;;;1.37;;
17059;SDS011;8646;49.716;9.266;2023-03-31T18:19:01;4.33;;;1.10;;
17059;SDS011;8646;49.716;9.266;2023-03-31T18:22:04;4.43;;;0.83;;
17059;SDS011;8646;49.716;9.266;2023-03-31T18:25:07;5.03;;;1.00;;
17059;SDS011;8646;49.716;9.266;2023-03-31T18:28:11;6.60;;;1.37;;
17059;SDS011;8646;49.716;9.266;2023-03-31T18:31:15;3.00;;;0.90;;
17059;SDS011;8646;49.716;9.266;2023-03-31T18:34:19;3.70;;;1.10;;
17059;SDS011;8646;49.716;9.266;2023-03-31T18:37:22;2.97;;;0.90;;
17059;SDS011;8646;49.716;9.266;2023-03-31T18:40:25;2.00;;;1.07;;
17059;SDS011;8646;49.716;9.266;2023-03-31T18:43:28;1.13;;;0.70;;
17059;SDS011;8646;49.716;9.266;2023-03-31T18:46:33;2.07;;;0.80;;
17059;SDS011;8646;49.716;9.266;2023-03-31T18:49:37;3.87;;;0.77;;
17059;SDS011;8646;49.716;9.266;2023-03-31T18:52:40;4.33;;;0.70;;
17059;SDS011;8646;49.716;9.266;2023-03-31T18:55:42;4.47;;;0.67;;
17059;SDS011;8646;49.716;9.266;2023-03-31T18:58:45;5.40;;;0.80;;
17059;SDS011;8646;49.716;9.266;2023-03-31T19:01:49;4.37;;;1.10;;
17059;SDS011;8646;49.716;9.266;2023-03-31T19:04:56;1.97;;;0.60;;
17059;SDS011;8646;49.716;9.266;2023-03-31T19:07:59;3.23;;;0.90;;
17059;SDS011;8646;49.716;9.266;2023-03-31T19:11:06;5.63;;;1.10;;
17059;SDS011;8646;49.716;9.266;2023-03-31T19:14:10;5.60;;;1.00;;
17059;SDS011;8646;49.716;9.266;2023-03-31T19:17:13;4.30;;;1.03;;
17059;SDS011;8646;49.716;9.266;2023-03-31T19:20:19;3.27;;;0.70;;
17059;SDS011;8646;49.716;9.266;2023-03-31T19:23:22;4.83;;;0.87;;
17059;SDS011;8646;49.716;9.266;2023-03-31T19:26:27;8.33;;;1.30;;
17059;SDS011;8646;49.716;9.266;2023-03-31T19:29:30;5.33;;;0.77;;
17059;SDS011;8646;49.716;9.266;2023-03-31T19:32:34;4.00;;;0.90;;
17059;SDS011;8646;49.716;9.266;2023-03-31T19:35:41;4.47;;;1.03;;
17059;SDS011;8646;49.716;9.266;2023-03-31T19:38:44;5.07;;;1.20;;
17059;SDS011;8646;49.716;9.266;2023-03-31T19:41:47;3.37;;;0.73;;
17059;SDS011;8646;49.716;9.266;2023-03-31T19:44:50;3.10;;;0.77;;
17059;SDS011;8646;49.716;9.266;2023-03-31T19:47:53;5.57;;;1.00;;